createdAt,value
2019-05-30T00:01:54.205Z,69.10
2019-05-30T00:04:22.383Z,69.40
2019-05-30T00:06:50.033Z,68.60
2019-05-30T00:09:17.794Z,68.20
2019-05-30T00:11:45.589Z,68.40
2019-05-30T00:14:13.439Z,68.60
2019-05-30T00:16:41.352Z,69.30
2019-05-30T00:19:09.577Z,70.30
2019-05-30T00:21:37.158Z,70.20
2019-05-30T00:24:06.115Z,70.20
2019-05-30T00:26:33.936Z,70.10
2019-05-30T00:29:02.569Z,69.70
2019-05-30T00:31:30.371Z,70.10
2019-05-30T00:33:57.983Z,70.50
2019-05-30T00:36:25.586Z,70.50
2019-05-30T00:38:53.073Z,70.30
2019-05-30T00:41:21.308Z,70.50
2019-05-30T00:43:48.898Z,71.20
2019-05-30T00:46:16.995Z,71.70
2019-05-30T00:48:44.821Z,72.10
2019-05-30T00:51:12.706Z,72.00
2019-05-30T00:53:40.232Z,71.30
2019-05-30T00:56:07.990Z,70.90
2019-05-30T00:58:35.511Z,71.10
2019-05-30T01:01:03.203Z,70.80
2019-05-30T01:03:30.836Z,71.20
2019-05-30T01:05:58.712Z,71.90
2019-05-30T01:08:26.390Z,71.60
2019-05-30T01:10:54.366Z,71.20
2019-05-30T01:13:21.959Z,71.70
2019-05-30T01:15:49.474Z,71.10
2019-05-30T01:18:17.035Z,71.30
2019-05-30T01:20:45.514Z,71.20
2019-05-30T01:23:13.561Z,71.20
2019-05-30T01:25:40.974Z,70.80
2019-05-30T01:28:08.843Z,71.80
2019-05-30T01:30:36.369Z,71.70
2019-05-30T01:33:03.910Z,71.80
2019-05-30T01:35:31.854Z,72.40
2019-05-30T01:37:59.642Z,72.30
2019-05-30T01:40:27.557Z,72.20
2019-05-30T01:42:55.410Z,71.90
2019-05-30T01:45:23.069Z,72.00
2019-05-30T01:47:50.880Z,73.10
2019-05-30T01:50:18.273Z,73.10
2019-05-30T01:52:45.678Z,72.50
2019-05-30T01:55:13.507Z,72.90
2019-05-30T01:57:41.309Z,73.30
2019-05-30T02:00:19.867Z,73.00
2019-05-30T02:02:39.720Z,72.90
2019-05-30T02:05:10.101Z,72.90
2019-05-30T02:07:37.749Z,72.70
2019-05-30T02:10:07.437Z,72.60
2019-05-30T02:12:35.043Z,72.50
2019-05-30T02:15:03.602Z,73.00
2019-05-30T02:17:31.401Z,73.10
2019-05-30T02:19:59.660Z,73.00
2019-05-30T02:22:27.682Z,73.20
2019-05-30T02:24:55.487Z,73.20
2019-05-30T02:27:23.424Z,73.30
2019-05-30T02:29:50.950Z,73.10
2019-05-30T02:32:18.832Z,73.30
2019-05-30T02:34:46.386Z,73.80
2019-05-30T02:37:13.876Z,73.50
2019-05-30T02:39:41.415Z,74.10
2019-05-30T02:42:09.681Z,74.30
2019-05-30T02:44:38.361Z,75.40
2019-05-30T02:47:07.224Z,74.50
2019-05-30T02:49:35.066Z,74.50
2019-05-30T02:52:04.787Z,75.20
2019-05-30T02:54:32.717Z,74.90
2019-05-30T02:57:01.488Z,74.20
2019-05-30T02:59:30.378Z,74.40
2019-05-30T03:02:02.062Z,74.00
2019-05-30T03:04:27.964Z,74.20
2019-05-30T03:06:55.684Z,74.50
2019-05-30T03:09:23.228Z,75.00
2019-05-30T03:11:51.743Z,74.70
2019-05-30T03:14:20.082Z,74.40
2019-05-30T03:16:48.667Z,74.80
2019-05-30T03:19:16.088Z,73.90
2019-05-30T03:21:43.744Z,73.30
2019-05-30T03:24:13.840Z,73.60
2019-05-30T03:26:40.854Z,73.90
2019-05-30T03:29:09.991Z,73.70
2019-05-30T03:31:39.143Z,74.30
2019-05-30T03:34:13.597Z,75.30
2019-05-30T03:36:36.492Z,75.30
2019-05-30T03:39:05.973Z,75.90
2019-05-30T03:41:35.130Z,76.50
2019-05-30T03:44:04.037Z,77.30
2019-05-30T03:46:36.640Z,77.90
2019-05-30T03:49:08.761Z,77.80
2019-05-30T03:51:39.354Z,78.20
2019-05-30T03:54:09.323Z,77.40
2019-05-30T03:56:42.507Z,77.60
2019-05-30T03:59:22.214Z,78.30
2019-05-30T04:02:15.919Z,79.10
2019-05-30T04:04:49.315Z,79.20
2019-05-30T04:07:20.728Z,79.90
2019-05-30T04:09:51.787Z,80.20
2019-05-30T04:12:28.835Z,80.90
2019-05-30T04:15:02.507Z,80.10
2019-05-30T04:17:30.362Z,81.70
2019-05-30T04:19:58.570Z,81.50
2019-05-30T04:22:26.138Z,81.90
2019-05-30T04:24:53.845Z,82.90
2019-05-30T04:27:21.412Z,82.10
2019-05-30T04:29:49.344Z,82.50
2019-05-30T04:32:18.505Z,82.70
2019-05-30T04:34:46.356Z,82.30
2019-05-30T04:37:14.843Z,81.70
2019-05-30T04:39:42.597Z,82.20
2019-05-30T04:42:11.379Z,82.60
2019-05-30T04:44:39.328Z,83.50
2019-05-30T04:47:07.239Z,84.10
2019-05-30T04:49:34.789Z,84.10
2019-05-30T04:52:02.799Z,84.20
2019-05-30T04:54:30.843Z,84.10
2019-05-30T04:56:58.776Z,84.40
2019-05-30T04:59:27.380Z,84.60
2019-05-30T05:01:55.355Z,84.30
2019-05-30T05:04:23.214Z,84.70
2019-05-30T05:06:50.877Z,84.00
2019-05-30T05:09:20.118Z,83.50
2019-05-30T05:11:48.154Z,83.60
2019-05-30T05:14:18.364Z,83.40
2019-05-30T05:16:47.437Z,82.90
2019-05-30T05:19:15.031Z,83.50
2019-05-30T05:21:42.559Z,82.80
2019-05-30T05:24:10.208Z,82.40
2019-05-30T05:26:39.161Z,82.00
2019-05-30T05:29:06.673Z,82.50
2019-05-30T05:31:34.345Z,82.10
2019-05-30T05:34:01.865Z,81.40
2019-05-30T05:36:29.506Z,81.50
2019-05-30T05:38:57.253Z,81.40
2019-05-30T05:41:24.895Z,81.30
2019-05-30T05:43:52.733Z,80.30
2019-05-30T05:46:20.414Z,81.60
2019-05-30T05:48:48.298Z,81.60
2019-05-30T05:51:16.568Z,81.50
2019-05-30T05:53:44.530Z,81.70
2019-05-30T05:56:11.913Z,80.60
2019-05-30T05:58:39.298Z,80.20
2019-05-30T06:01:06.901Z,79.80
2019-05-30T06:03:34.670Z,79.90
2019-05-30T06:06:02.224Z,79.50
2019-05-30T06:08:30.039Z,79.40
2019-05-30T06:10:57.814Z,80.00
2019-05-30T06:13:25.279Z,79.30
2019-05-30T06:15:53.151Z,79.70
2019-05-30T06:18:22.143Z,79.40
2019-05-30T06:20:49.861Z,79.30
2019-05-30T06:23:17.691Z,78.80
2019-05-30T06:25:45.532Z,78.90
2019-05-30T06:28:14.157Z,78.50
2019-05-30T06:30:41.999Z,79.20
2019-05-30T06:33:09.868Z,79.10
2019-05-30T06:35:37.396Z,78.20
2019-05-30T06:38:05.311Z,78.00
2019-05-30T06:40:32.801Z,77.00
2019-05-30T06:43:00.669Z,79.10
2019-05-30T06:45:30.340Z,76.40
2019-05-30T06:47:58.341Z,75.80
2019-05-30T06:50:26.839Z,76.00
2019-05-30T06:52:55.366Z,75.20
2019-05-30T06:55:23.132Z,76.00
2019-05-30T06:57:51.642Z,76.20
2019-05-30T07:00:19.539Z,77.20
2019-05-30T07:02:47.099Z,76.00
2019-05-30T07:05:15.787Z,76.30
2019-05-30T07:07:43.793Z,75.70
2019-05-30T07:10:11.908Z,76.60
2019-05-30T07:12:39.937Z,77.50
2019-05-30T07:15:07.987Z,75.60
2019-05-30T07:17:36.487Z,75.90
2019-05-30T07:20:04.653Z,76.50
2019-05-30T07:22:33.816Z,75.90
2019-05-30T07:25:01.574Z,75.50
2019-05-30T07:27:29.925Z,75.90
2019-05-30T07:29:57.781Z,74.30
2019-05-30T07:32:25.877Z,76.70
2019-05-30T07:35:06.171Z,75.90
2019-05-30T07:37:24.376Z,77.10
2019-05-30T07:39:51.970Z,74.90
2019-05-30T07:42:19.851Z,73.10
2019-05-30T07:44:48.494Z,71.20
2019-05-30T07:47:17.095Z,70.90
2019-05-30T07:49:44.751Z,68.60
2019-05-30T07:52:12.372Z,68.50
2019-05-30T07:54:39.841Z,70.00
2019-05-30T07:57:07.548Z,65.50
2019-05-30T07:59:36.654Z,69.20
2019-05-30T08:02:04.102Z,67.20
2019-05-30T08:04:32.485Z,67.80
2019-05-30T08:07:01.525Z,66.90
2019-05-30T08:09:29.367Z,66.30
2019-05-30T08:11:57.135Z,66.30
2019-05-30T08:14:24.606Z,64.50
2019-05-30T08:16:52.129Z,67.70
2019-05-30T08:19:19.735Z,65.60
2019-05-30T08:21:47.121Z,64.80
2019-05-30T08:24:14.647Z,65.70
2019-05-30T08:26:45.235Z,65.60
2019-05-30T08:29:12.945Z,64.50
2019-05-30T08:31:40.461Z,65.30
2019-05-30T08:34:07.981Z,66.00
2019-05-30T08:36:35.628Z,64.10
2019-05-30T08:39:05.394Z,64.10
2019-05-30T08:41:33.498Z,66.60
2019-05-30T08:44:01.001Z,65.90
2019-05-30T08:46:30.214Z,65.10
2019-05-30T08:49:01.615Z,65.00
2019-05-30T08:51:27.529Z,63.80
2019-05-30T08:53:55.185Z,66.20
2019-05-30T08:56:22.863Z,64.20
2019-05-30T08:58:50.932Z,63.50
2019-05-30T09:01:19.594Z,64.90
2019-05-30T09:03:47.701Z,59.50
2019-05-30T09:06:15.603Z,56.40
2019-05-30T09:08:44.286Z,57.20
2019-05-30T09:11:12.341Z,58.20
2019-05-30T09:13:40.432Z,56.60
2019-05-30T09:16:07.945Z,57.60
2019-05-30T09:18:36.830Z,56.30
2019-05-30T09:21:04.788Z,50.00
2019-05-30T09:23:32.627Z,50.70
2019-05-30T09:26:00.163Z,54.80
2019-05-30T09:28:27.665Z,54.50
2019-05-30T09:30:55.203Z,51.30
2019-05-30T09:33:22.729Z,50.70
2019-05-30T09:35:50.313Z,50.50
2019-05-30T09:38:17.856Z,44.20
2019-05-30T09:40:45.510Z,45.50
2019-05-30T09:43:13.345Z,45.30
2019-05-30T09:45:42.313Z,43.40
2019-05-30T09:48:10.189Z,43.60
2019-05-30T09:50:37.773Z,39.80
2019-05-30T09:53:05.393Z,40.70
2019-05-30T09:55:33.999Z,43.20
2019-05-30T09:58:01.898Z,42.90
2019-05-30T10:00:31.952Z,40.60
2019-05-30T10:02:59.726Z,42.70
2019-05-30T10:05:27.264Z,41.70
2019-05-30T10:07:54.814Z,39.20
2019-05-30T10:10:23.503Z,42.80
2019-05-30T10:12:52.678Z,42.30
2019-05-30T10:15:20.450Z,37.40
2019-05-30T10:17:49.703Z,38.70
2019-05-30T10:20:18.842Z,34.00
2019-05-30T10:22:47.095Z,35.10
2019-05-30T10:25:16.904Z,37.20
2019-05-30T10:27:46.224Z,34.40
2019-05-30T10:30:16.441Z,34.80
2019-05-30T10:32:45.451Z,36.50
2019-05-30T10:35:14.019Z,38.10
2019-05-30T10:37:41.555Z,35.70
2019-05-30T10:40:10.942Z,36.30
2019-05-30T10:42:38.470Z,36.80
2019-05-30T10:45:07.308Z,35.00
2019-05-30T10:47:34.819Z,34.50
2019-05-30T10:50:03.510Z,34.60
2019-05-30T10:52:31.582Z,36.60
2019-05-30T10:54:59.575Z,41.30
2019-05-30T10:57:27.430Z,37.00
2019-05-30T10:59:54.959Z,35.70
2019-05-30T11:02:23.101Z,34.40
2019-05-30T11:04:50.902Z,32.20
2019-05-30T11:07:30.173Z,34.20
2019-05-30T11:10:04.532Z,34.80
2019-05-30T11:12:32.339Z,30.10
2019-05-30T11:14:59.880Z,29.50
2019-05-30T11:17:27.762Z,28.70
2019-05-30T11:19:56.164Z,33.00
2019-05-30T11:22:23.971Z,33.20
2019-05-30T11:24:52.732Z,31.80
2019-05-30T11:27:20.283Z,27.80
2019-05-30T11:29:48.701Z,28.70
2019-05-30T11:32:16.736Z,26.80
2019-05-30T11:34:44.252Z,27.20
2019-05-30T11:37:18.633Z,27.90
2019-05-30T11:39:41.347Z,29.10
2019-05-30T11:42:08.907Z,25.10
2019-05-30T11:44:36.539Z,24.50
2019-05-30T11:47:04.107Z,27.60
2019-05-30T11:49:32.049Z,28.70
2019-05-30T11:52:00.338Z,28.10
2019-05-30T11:54:27.840Z,30.50
2019-05-30T11:56:56.146Z,28.10
2019-05-30T11:59:24.259Z,29.60
2019-05-30T12:02:11.434Z,28.30
2019-05-30T12:04:39.039Z,28.50
2019-05-30T12:07:06.541Z,29.80
2019-05-30T12:09:34.290Z,28.60
2019-05-30T12:12:02.146Z,32.30
2019-05-30T12:14:29.673Z,28.80
2019-05-30T12:16:57.368Z,29.60
2019-05-30T12:19:25.088Z,31.80
2019-05-30T12:21:53.571Z,32.50
2019-05-30T12:24:21.409Z,28.30
2019-05-30T12:26:48.897Z,30.00
2019-05-30T12:29:16.323Z,28.30
2019-05-30T12:31:43.844Z,31.10
2019-05-30T12:34:11.262Z,29.70
2019-05-30T12:36:38.740Z,29.20
2019-05-30T12:39:06.301Z,30.30
2019-05-30T12:41:33.897Z,29.30
2019-05-30T12:44:05.757Z,28.50
2019-05-30T12:46:33.699Z,30.50
2019-05-30T12:49:01.668Z,30.00
2019-05-30T12:51:29.169Z,30.90
2019-05-30T12:53:56.582Z,32.90
2019-05-30T12:56:24.342Z,32.20
2019-05-30T12:58:51.853Z,31.50
2019-05-30T13:01:19.585Z,31.40
2019-05-30T13:03:47.094Z,31.10
2019-05-30T13:06:14.678Z,33.00
2019-05-30T13:08:42.181Z,31.10
2019-05-30T13:11:09.844Z,37.20
2019-05-30T13:13:37.340Z,32.40
2019-05-30T13:16:08.471Z,33.50
2019-05-30T13:18:34.311Z,33.40
2019-05-30T13:21:02.211Z,36.50
2019-05-30T13:23:30.139Z,35.30
2019-05-30T13:25:59.489Z,35.80
2019-05-30T13:28:27.098Z,37.00
2019-05-30T13:30:56.075Z,39.00
2019-05-30T13:33:24.086Z,37.70
2019-05-30T13:35:52.327Z,37.10
2019-05-30T13:38:26.410Z,35.50
2019-05-30T13:40:49.626Z,37.70
2019-05-30T13:43:17.137Z,36.60
2019-05-30T13:45:45.011Z,40.00
2019-05-30T13:48:12.489Z,36.70
2019-05-30T13:50:40.192Z,37.60
2019-05-30T13:53:09.376Z,38.50
2019-05-30T13:55:37.477Z,39.30
2019-05-30T13:58:05.715Z,38.50
2019-05-30T14:00:33.420Z,37.60
2019-05-30T14:03:02.262Z,39.20
2019-05-30T14:05:29.893Z,39.10
2019-05-30T14:07:57.718Z,37.70
2019-05-30T14:10:25.342Z,37.00
2019-05-30T14:12:53.266Z,37.70
2019-05-30T14:15:20.953Z,39.40
2019-05-30T14:17:48.414Z,38.50
2019-05-30T14:20:17.423Z,38.50
2019-05-30T14:22:45.226Z,38.00
2019-05-30T14:25:13.001Z,38.10
2019-05-30T14:27:40.596Z,39.80
2019-05-30T14:30:10.817Z,39.80
2019-05-30T14:32:38.501Z,40.20
2019-05-30T14:35:06.441Z,40.60
2019-05-30T14:37:34.509Z,40.90
2019-05-30T14:40:02.666Z,38.30
2019-05-30T14:42:30.384Z,38.80
2019-05-30T14:44:58.286Z,39.80
2019-05-30T14:47:26.409Z,39.30
2019-05-30T14:49:53.973Z,40.50
2019-05-30T14:52:21.934Z,39.00
2019-05-30T14:54:49.823Z,39.40
2019-05-30T14:57:18.997Z,40.70
2019-05-30T14:59:46.795Z,38.80
2019-05-30T15:02:14.576Z,39.30
2019-05-30T15:04:43.449Z,40.50
2019-05-30T15:07:11.461Z,39.80
2019-05-30T15:09:42.354Z,39.60
2019-05-30T15:12:08.766Z,40.80
2019-05-30T15:14:36.597Z,40.90
2019-05-30T15:17:04.117Z,41.70
2019-05-30T15:19:31.875Z,40.40
2019-05-30T15:21:59.414Z,40.40
2019-05-30T15:24:26.983Z,41.30
2019-05-30T15:26:55.089Z,39.90
2019-05-30T15:29:22.638Z,39.40
2019-05-30T15:31:50.197Z,41.00
2019-05-30T15:34:17.742Z,42.10
2019-05-30T15:36:45.284Z,41.70
2019-05-30T15:39:13.024Z,42.50
2019-05-30T15:41:41.459Z,40.70
2019-05-30T15:44:09.459Z,41.10
2019-05-30T15:46:37.298Z,40.20
2019-05-30T15:49:04.848Z,39.70
2019-05-30T15:51:32.882Z,40.00
2019-05-30T15:54:01.080Z,41.90
2019-05-30T15:56:28.636Z,40.50
2019-05-30T15:58:56.399Z,40.50
2019-05-30T16:01:23.993Z,41.20
2019-05-30T16:03:51.434Z,43.00
2019-05-30T16:06:19.002Z,41.70
2019-05-30T16:08:46.830Z,43.60
2019-05-30T16:11:14.926Z,41.90
2019-05-30T16:13:43.431Z,39.60
2019-05-30T16:16:11.547Z,42.30
2019-05-30T16:18:39.926Z,42.80
2019-05-30T16:21:08.473Z,42.00
2019-05-30T16:23:35.986Z,40.60
2019-05-30T16:26:04.167Z,42.20
2019-05-30T16:28:32.196Z,42.80
2019-05-30T16:31:00.215Z,42.20
2019-05-30T16:33:27.744Z,41.70
2019-05-30T16:35:55.252Z,40.80
2019-05-30T16:38:23.281Z,39.80
2019-05-30T16:40:50.688Z,40.60
2019-05-30T16:43:20.389Z,42.70
2019-05-30T16:45:47.925Z,44.00
2019-05-30T16:48:16.324Z,45.30
2019-05-30T16:50:43.762Z,44.10
2019-05-30T16:53:11.655Z,43.50
2019-05-30T16:55:39.163Z,43.00
2019-05-30T16:58:06.765Z,42.60
2019-05-30T17:00:34.479Z,42.60
2019-05-30T17:03:02.161Z,44.00
2019-05-30T17:05:29.673Z,43.00
2019-05-30T17:07:57.561Z,43.80
2019-05-30T17:10:31.087Z,43.70
2019-05-30T17:12:54.498Z,44.60
2019-05-30T17:15:22.270Z,43.60
2019-05-30T17:17:50.073Z,43.80
2019-05-30T17:20:18.517Z,44.10
2019-05-30T17:22:46.114Z,43.50
2019-05-30T17:25:14.271Z,43.90
2019-05-30T17:27:41.808Z,44.40
2019-05-30T17:30:10.471Z,43.40
2019-05-30T17:32:38.008Z,43.90
2019-05-30T17:35:06.269Z,43.50
2019-05-30T17:37:33.868Z,43.90
2019-05-30T17:40:02.824Z,43.20
2019-05-30T17:42:31.849Z,44.20
2019-05-30T17:45:00.920Z,44.70
2019-05-30T17:47:29.510Z,44.90
2019-05-30T17:49:57.615Z,44.00
2019-05-30T17:52:25.788Z,43.90
2019-05-30T17:54:54.286Z,44.50
2019-05-30T17:57:22.166Z,45.50
2019-05-30T17:59:49.737Z,45.80
2019-05-30T18:02:18.265Z,45.90
2019-05-30T18:04:45.821Z,45.10
2019-05-30T18:07:13.357Z,46.20
2019-05-30T18:09:41.011Z,46.50
2019-05-30T18:12:09.079Z,46.70
2019-05-30T18:14:36.957Z,47.10
2019-05-30T18:17:04.355Z,47.10
2019-05-30T18:19:31.849Z,47.00
2019-05-30T18:21:59.419Z,47.90
2019-05-30T18:24:27.711Z,47.80
2019-05-30T18:26:55.449Z,48.30
2019-05-30T18:29:23.914Z,48.80
2019-05-30T18:31:51.369Z,48.80
2019-05-30T18:34:19.476Z,49.10
2019-05-30T18:36:47.623Z,49.20
2019-05-30T18:39:15.153Z,49.20
2019-05-30T18:41:42.799Z,49.90
2019-05-30T18:44:10.712Z,50.10
2019-05-30T18:46:38.842Z,50.50
2019-05-30T18:49:06.881Z,50.80
2019-05-30T18:51:36.615Z,51.00
2019-05-30T18:54:04.531Z,50.90
2019-05-30T18:56:32.784Z,51.00
2019-05-30T18:59:01.206Z,51.20
2019-05-30T19:01:29.666Z,51.90
2019-05-30T19:03:57.393Z,50.70
2019-05-30T19:06:25.654Z,51.00
2019-05-30T19:08:53.995Z,51.10
2019-05-30T19:11:27.986Z,51.40
2019-05-30T19:13:50.926Z,51.40
2019-05-30T19:16:18.699Z,51.70
2019-05-30T19:18:46.573Z,52.00
2019-05-30T19:21:13.972Z,52.00
2019-05-30T19:23:41.358Z,52.30
2019-05-30T19:26:08.828Z,52.40
2019-05-30T19:28:36.802Z,52.40
2019-05-30T19:31:04.691Z,52.20
2019-05-30T19:33:32.876Z,52.10
2019-05-30T19:36:00.611Z,52.30
2019-05-30T19:38:29.440Z,52.30
2019-05-30T19:40:57.054Z,52.00
2019-05-30T19:43:24.616Z,52.10
2019-05-30T19:45:52.492Z,53.00
2019-05-30T19:48:20.001Z,53.90
2019-05-30T19:50:47.840Z,54.70
2019-05-30T19:53:15.346Z,54.90
2019-05-30T19:55:42.858Z,55.20
2019-05-30T19:58:10.502Z,54.80
2019-05-30T20:00:54.714Z,54.80
2019-05-30T20:03:07.550Z,54.50
2019-05-30T20:05:35.113Z,54.80
2019-05-30T20:08:04.210Z,55.10
2019-05-30T20:10:32.784Z,55.70
2019-05-30T20:13:01.875Z,55.00
2019-05-30T20:15:29.540Z,54.50
2019-05-30T20:17:57.097Z,54.90
2019-05-30T20:20:25.215Z,55.60
2019-05-30T20:22:52.862Z,56.20
2019-05-30T20:25:20.802Z,56.40
2019-05-30T20:27:48.340Z,56.40
2019-05-30T20:30:16.460Z,56.90
2019-05-30T20:32:44.324Z,56.60
2019-05-30T20:35:11.946Z,57.10
2019-05-30T20:37:39.343Z,57.20
2019-05-30T20:40:07.329Z,57.30
2019-05-30T20:42:34.888Z,57.20
2019-05-30T20:45:05.494Z,57.20
2019-05-30T20:47:35.503Z,57.20
2019-05-30T20:50:02.051Z,57.20
2019-05-30T20:52:29.985Z,57.00
2019-05-30T20:54:57.780Z,56.70
2019-05-30T20:57:25.310Z,56.60
2019-05-30T20:59:52.911Z,56.40
2019-05-30T21:02:20.321Z,56.60
2019-05-30T21:04:48.099Z,56.40
2019-05-30T21:07:15.818Z,56.00
2019-05-30T21:09:44.219Z,56.20
2019-05-30T21:12:14.569Z,56.50
2019-05-30T21:14:45.964Z,56.70
2019-05-30T21:17:15.310Z,56.80
2019-05-30T21:19:44.085Z,56.10
2019-05-30T21:22:11.640Z,56.20
2019-05-30T21:24:40.577Z,56.60
2019-05-30T21:27:08.534Z,56.80
2019-05-30T21:29:36.791Z,56.90
2019-05-30T21:32:04.413Z,57.20
2019-05-30T21:34:32.069Z,57.70
2019-05-30T21:36:59.740Z,57.00
2019-05-30T21:39:27.875Z,57.40
2019-05-30T21:41:55.394Z,57.60
2019-05-30T21:44:23.259Z,57.80
2019-05-30T21:46:50.767Z,58.00
2019-05-30T21:49:18.825Z,58.20
2019-05-30T21:51:47.338Z,58.10
2019-05-30T21:54:15.579Z,58.20
2019-05-30T21:56:43.956Z,58.50
2019-05-30T21:59:11.896Z,58.30
2019-05-30T22:01:40.689Z,58.40
2019-05-30T22:04:08.584Z,57.90
2019-05-30T22:06:36.351Z,58.20
2019-05-30T22:09:08.309Z,58.60
2019-05-30T22:11:36.133Z,58.30
2019-05-30T22:14:04.039Z,58.50
2019-05-30T22:16:31.480Z,58.80
2019-05-30T22:18:58.998Z,58.70
2019-05-30T22:21:26.901Z,59.80
2019-05-30T22:23:54.395Z,59.90
2019-05-30T22:26:23.440Z,60.50
2019-05-30T22:28:50.890Z,60.00
2019-05-30T22:31:18.418Z,59.60
2019-05-30T22:33:46.645Z,60.20
2019-05-30T22:36:14.735Z,60.30
2019-05-30T22:38:43.119Z,59.70
2019-05-30T22:41:10.994Z,60.30
2019-05-30T22:43:38.501Z,60.60
2019-05-30T22:46:06.132Z,60.70
2019-05-30T22:48:33.642Z,61.20
2019-05-30T22:51:01.736Z,60.70
2019-05-30T22:53:29.241Z,60.30
2019-05-30T22:55:57.414Z,60.00
2019-05-30T22:58:24.976Z,60.20
2019-05-30T23:00:54.008Z,60.40
2019-05-30T23:03:21.935Z,60.50
2019-05-30T23:05:49.489Z,60.50
2019-05-30T23:08:17.040Z,61.10
2019-05-30T23:10:45.611Z,62.00
2019-05-30T23:13:13.285Z,61.40
2019-05-30T23:15:41.101Z,61.60
2019-05-30T23:18:08.870Z,61.60
2019-05-30T23:20:36.765Z,62.10
2019-05-30T23:23:04.390Z,61.90
2019-05-30T23:25:31.922Z,62.00
2019-05-30T23:27:59.396Z,62.50
2019-05-30T23:30:27.185Z,62.70
2019-05-30T23:32:54.773Z,62.40
2019-05-30T23:35:22.303Z,63.00
2019-05-30T23:37:50.549Z,62.80
2019-05-30T23:40:19.304Z,62.80
2019-05-30T23:42:47.137Z,62.70
2019-05-30T23:45:14.904Z,62.60
2019-05-30T23:47:42.477Z,62.50
2019-05-30T23:50:10.657Z,62.20
2019-05-30T23:52:38.761Z,62.10
2019-05-30T23:55:06.921Z,62.70
2019-05-30T23:57:34.360Z,62.40
